Harmony Sp — 3FWE6 — position and weather

sailwx.info

Track history (hours):
 
Tides and Currents Weather Stations Pressure Air Temp Water Temp Dewpoint Dewpoint Depression Visibility Wind Speed Wind Dir Waves Ship Positions

Harmony Sp

Last reported at 2016-Dec-02 10:14 UTC. Time now 2016-Dec-05 08:33 UTC.
Position N 40°45' E 029°08'.

MMSI: 353359712.

Date/timePositionNaut miles runAvg speedWind from/ knotsBaromVisibWave heightAir tempDewpointWater temp
2016-Dec-02 10:14N 40°45' E 029°08'6 8.4
2016-Dec-02 09:33N 40°45' E 029°15'9 8.0
2016-Dec-02 08:26N 40°45' E 029°27'  
2016-Nov-27 19:33N 40°44' E 029°17'  
2016-Nov-25 09:32N 44°27' E 037°31'9 8.9
2016-Nov-25 08:33N 44°32' E 037°41'9 8.7
2016-Nov-25 07:34N 44°38' E 037°49'6 6.2
2016-Nov-25 06:34N 44°44' E 037°47'0 0.0
2016-Nov-25 05:33N 44°44' E 037°47'0 0.0
2016-Nov-25 04:33N 44°44' E 037°47'0 0.0
2016-Nov-25 03:33N 44°44' E 037°47'0 0.0
2016-Nov-25 02:33N 44°44' E 037°47'0 0.0
2016-Nov-25 01:33N 44°44' E 037°47'0 0.0
2016-Nov-25 00:33N 44°44' E 037°47'0 0.0
2016-Nov-24 23:33N 44°44' E 037°47'0 0.0
2016-Nov-24 22:33N 44°44' E 037°47'0 0.0
2016-Nov-24 21:33N 44°44' E 037°47'0 0.0
2016-Nov-24 20:33N 44°44' E 037°47'0 0.0
2016-Nov-24 19:33N 44°44' E 037°47'0 0.0
2016-Nov-24 18:33N 44°44' E 037°47'0 0.0
2016-Nov-24 17:33N 44°44' E 037°47'0 0.0
2016-Nov-24 16:33N 44°44' E 037°47'0 0.0
2016-Nov-24 15:33N 44°44' E 037°47'0 0.0
2016-Nov-24 14:33N 44°44' E 037°47'0 0.0
2016-Nov-24 13:33N 44°44' E 037°47'0 0.0
2016-Nov-24 12:33N 44°44' E 037°47'0 0.0
2016-Nov-24 11:33N 44°44' E 037°47'0 0.0
2016-Nov-24 10:33N 44°44' E 037°47'0 0.0
2016-Nov-24 09:33N 44°44' E 037°47'0 0.0
2016-Nov-24 08:33N 44°44' E 037°47'0 0.0
2016-Nov-24 07:33N 44°44' E 037°47'0 0.0
2016-Nov-24 06:33N 44°44' E 037°47'0 0.0
2016-Nov-24 05:33N 44°44' E 037°47'0 0.0
2016-Nov-24 04:33N 44°44' E 037°47'0 0.0
2016-Nov-24 03:33N 44°44' E 037°47'0 0.0
2016-Nov-24 02:33N 44°44' E 037°47'0 0.0
2016-Nov-24 01:33N 44°44' E 037°47'0 0.0
2016-Nov-24 00:33N 44°44' E 037°47'0 0.0
2016-Nov-23 23:33N 44°44' E 037°47'0 0.0
2016-Nov-23 22:33N 44°44' E 037°47'0 0.0
2016-Nov-23 21:33N 44°44' E 037°47'0 0.0
2016-Nov-23 20:33N 44°44' E 037°47'0 0.0
2016-Nov-23 19:33N 44°44' E 037°47'0 0.0
2016-Nov-23 18:33N 44°44' E 037°47'0 0.0
2016-Nov-23 17:33N 44°44' E 037°47'0 0.0
2016-Nov-23 16:30N 44°44' E 037°47'0 0.0
2016-Nov-23 15:33N 44°44' E 037°47'0 0.0
2016-Nov-23 14:24N 44°44' E 037°47'0 0.0
2016-Nov-23 13:33N 44°44' E 037°47'0 0.0
2016-Nov-23 12:33N 44°44' E 037°47'0 0.0
2016-Nov-23 11:33N 44°44' E 037°47'0 0.0
2016-Nov-23 10:33N 44°44' E 037°47'0 0.0
2016-Nov-23 09:33N 44°44' E 037°47'0 0.0
2016-Nov-23 08:33N 44°44' E 037°47'0 0.0
2016-Nov-23 07:33N 44°44' E 037°47'0 0.0
2016-Nov-23 06:33N 44°44' E 037°47'0 0.0
2016-Nov-23 03:33N 44°44' E 037°47'0 0.0
2016-Nov-23 02:33N 44°44' E 037°47'0 0.0
2016-Nov-23 00:33N 44°44' E 037°47'0 0.0
2016-Nov-22 23:33N 44°44' E 037°47'7 6.9
2016-Nov-22 22:33N 44°38' E 037°52'  
Track history (hours):
 
Tides and Currents Weather Stations Pressure Air Temp Water Temp Dewpoint Dewpoint Depression Visibility Wind Speed Wind Dir Waves Ship Positions

Harmony Sp

Last reported at 2016-Dec-02 10:14 UTC. Time now 2016-Dec-05 08:33 UTC.
Position N 40°45' E 029°08'.

MMSI: 353359712.

Date/timePositionNaut miles runAvg speedWind from/ knotsBaromVisibWave heightAir tempDewpointWater temp
2016-Dec-02 10:14N 40°45' E 029°08'6 8.4
2016-Dec-02 09:33N 40°45' E 029°15'9 8.0
2016-Dec-02 08:26N 40°45' E 029°27'  
2016-Nov-27 19:33N 40°44' E 029°17'  
2016-Nov-25 09:32N 44°27' E 037°31'9 8.9
2016-Nov-25 08:33N 44°32' E 037°41'9 8.7
2016-Nov-25 07:34N 44°38' E 037°49'6 6.2
2016-Nov-25 06:34N 44°44' E 037°47'0 0.0
2016-Nov-25 05:33N 44°44' E 037°47'0 0.0
2016-Nov-25 04:33N 44°44' E 037°47'0 0.0
2016-Nov-25 03:33N 44°44' E 037°47'0 0.0
2016-Nov-25 02:33N 44°44' E 037°47'0 0.0
2016-Nov-25 01:33N 44°44' E 037°47'0 0.0
2016-Nov-25 00:33N 44°44' E 037°47'0 0.0
2016-Nov-24 23:33N 44°44' E 037°47'0 0.0
2016-Nov-24 22:33N 44°44' E 037°47'0 0.0
2016-Nov-24 21:33N 44°44' E 037°47'0 0.0
2016-Nov-24 20:33N 44°44' E 037°47'0 0.0
2016-Nov-24 19:33N 44°44' E 037°47'0 0.0
2016-Nov-24 18:33N 44°44' E 037°47'0 0.0
2016-Nov-24 17:33N 44°44' E 037°47'0 0.0
2016-Nov-24 16:33N 44°44' E 037°47'0 0.0
2016-Nov-24 15:33N 44°44' E 037°47'0 0.0
2016-Nov-24 14:33N 44°44' E 037°47'0 0.0
2016-Nov-24 13:33N 44°44' E 037°47'0 0.0
2016-Nov-24 12:33N 44°44' E 037°47'0 0.0
2016-Nov-24 11:33N 44°44' E 037°47'0 0.0
2016-Nov-24 10:33N 44°44' E 037°47'0 0.0
2016-Nov-24 09:33N 44°44' E 037°47'0 0.0
2016-Nov-24 08:33N 44°44' E 037°47'0 0.0
2016-Nov-24 07:33N 44°44' E 037°47'0 0.0
2016-Nov-24 06:33N 44°44' E 037°47'0 0.0
2016-Nov-24 05:33N 44°44' E 037°47'0 0.0
2016-Nov-24 04:33N 44°44' E 037°47'0 0.0
2016-Nov-24 03:33N 44°44' E 037°47'0 0.0
2016-Nov-24 02:33N 44°44' E 037°47'0 0.0
2016-Nov-24 01:33N 44°44' E 037°47'0 0.0
2016-Nov-24 00:33N 44°44' E 037°47'0 0.0
2016-Nov-23 23:33N 44°44' E 037°47'0 0.0
2016-Nov-23 22:33N 44°44' E 037°47'0 0.0
2016-Nov-23 21:33N 44°44' E 037°47'0 0.0
2016-Nov-23 20:33N 44°44' E 037°47'0 0.0
2016-Nov-23 19:33N 44°44' E 037°47'0 0.0
2016-Nov-23 18:33N 44°44' E 037°47'0 0.0
2016-Nov-23 17:33N 44°44' E 037°47'0 0.0
2016-Nov-23 16:30N 44°44' E 037°47'0 0.0
2016-Nov-23 15:33N 44°44' E 037°47'0 0.0
2016-Nov-23 14:24N 44°44' E 037°47'0 0.0
2016-Nov-23 13:33N 44°44' E 037°47'0 0.0
2016-Nov-23 12:33N 44°44' E 037°47'0 0.0
2016-Nov-23 11:33N 44°44' E 037°47'0 0.0
2016-Nov-23 10:33N 44°44' E 037°47'0 0.0
2016-Nov-23 09:33N 44°44' E 037°47'0 0.0
2016-Nov-23 08:33N 44°44' E 037°47'0 0.0
2016-Nov-23 07:33N 44°44' E 037°47'0 0.0
2016-Nov-23 06:33N 44°44' E 037°47'0 0.0
2016-Nov-23 03:33N 44°44' E 037°47'0 0.0
2016-Nov-23 02:33N 44°44' E 037°47'0 0.0
2016-Nov-23 00:33N 44°44' E 037°47'0 0.0
2016-Nov-22 23:33N 44°44' E 037°47'7 6.9
2016-Nov-22 22:33N 44°38' E 037°52'  

Dump ship's entire track history